Time;durP1;ratioP1;P1;durP2;ratioP2;P2;SDS_P1;SDS_P2;PMS_P1;PMS_P2;Temp;Humidity;BMP_temperature;BMP_pressure;BME280_temperature;BME280_humidity;BME280_pressure;Samples;Min_cycle;Max_cycle;Signal;HPM_P1;HPM_P2
2024/02/11 00:02:37;;;;;;;9.77;8.87;;;;;;;10.78;95.71;97843.16;4824717;29;20807;-82
2024/02/11 00:05:27;;;;;;;8.83;8.00;;;;;;;10.80;95.62;97850.91;4825103;29;20822;-83
2024/02/11 00:08:14;;;;;;;9.63;8.27;;;;;;;10.81;95.47;97846.84;4826442;29;20865;-80
2024/02/11 00:11:01;;;;;;;9.00;8.20;;;;;;;10.80;95.42;97848.16;4827471;29;20935;-81
2024/02/11 00:13:48;;;;;;;8.80;7.90;;;;;;;10.80;95.12;97856.44;4828569;29;20874;-81
2024/02/11 00:16:35;;;;;;;8.60;7.80;;;;;;;10.79;95.44;97855.69;4828527;29;20832;-81
2024/02/11 00:19:24;;;;;;;8.77;6.80;;;;;;;10.80;95.47;97845.38;4828996;29;21205;-81
2024/02/11 00:22:13;;;;;;;9.27;7.43;;;;;;;10.81;95.35;97852.38;4829024;29;20584;-81
2024/02/11 00:25:02;;;;;;;6.70;6.20;;;;;;;10.81;95.15;97846.84;4829042;29;20432;-81
2024/02/11 00:27:52;;;;;;;7.00;6.33;;;;;;;10.80;95.18;97850.91;4828731;29;20916;-82
2024/02/11 00:30:39;;;;;;;6.10;5.50;;;;;;;10.81;95.20;97846.84;4828869;29;20836;-83
2024/02/11 00:33:26;;;;;;;7.20;5.60;;;;;;;10.83;95.16;97845.03;4829456;29;20435;-80
2024/02/11 00:36:13;;;;;;;5.30;4.80;;;;;;;10.83;95.26;97851.28;4854280;29;20984;-80
2024/02/11 00:39:02;;;;;;;5.80;5.13;;;;;;;10.83;95.18;97853.31;4847845;29;20897;-80
2024/02/11 00:41:50;;;;;;;5.67;5.23;;;;;;;10.82;94.83;97860.13;4848126;29;20459;-81
2024/02/11 00:44:37;;;;;;;5.33;4.90;;;;;;;10.83;94.89;97861.63;4847269;29;20800;-81
2024/02/11 00:47:24;;;;;;;5.43;4.93;;;;;;;10.82;94.84;97853.84;4848365;29;20923;-83
2024/02/11 00:50:13;;;;;;;6.03;5.10;;;;;;;10.82;94.97;97853.84;4847472;29;20886;-81
2024/02/11 00:53:02;;;;;;;5.23;4.83;;;;;;;10.82;94.44;97851.09;4848524;29;20445;-82
2024/02/11 00:55:51;;;;;;;5.77;5.20;;;;;;;10.83;94.71;97850.56;4847189;29;20487;-82
2024/02/11 00:58:38;;;;;;;5.20;4.73;;;;;;;10.82;94.72;97853.84;4846954;29;20813;-80
2024/02/11 01:01:25;;;;;;;5.30;4.90;;;;;;;10.82;94.62;97856.63;4847345;29;20455;-82
2024/02/11 01:04:13;;;;;;;5.27;4.77;;;;;;;10.82;94.70;97851.09;4847945;29;20818;-82
2024/02/11 01:07:00;;;;;;;6.00;4.87;;;;;;;10.82;94.49;97844.28;4847096;29;20805;-82
2024/02/11 01:09:47;;;;;;;5.40;5.00;;;;;;;10.83;94.67;97856.81;4847363;29;20939;-81
2024/02/11 01:12:36;;;;;;;5.10;4.70;;;;;;;10.88;94.47;97855.94;4847675;29;20438;-81
2024/02/11 01:15:26;;;;;;;4.83;4.40;;;;;;;10.94;94.42;97862.06;4848367;29;20859;-82
2024/02/11 01:18:13;;;;;;;5.70;5.20;;;;;;;10.96;94.19;97853.94;4847597;29;20995;-81
2024/02/11 01:21:00;;;;;;;5.60;5.03;;;;;;;10.96;93.98;97859.47;4847371;29;20857;-82
2024/02/11 01:23:48;;;;;;;5.13;4.73;;;;;;;10.99;94.07;97863.91;4847332;29;20834;-83
2024/02/11 01:26:36;;;;;;;5.27;4.87;;;;;;;10.93;94.22;97859.81;4847729;29;20442;-81
2024/02/11 01:29:25;;;;;;;5.20;4.80;;;;;;;10.96;94.09;97859.47;4847572;29;20510;-80
2024/02/11 01:32:12;;;;;;;5.60;5.13;;;;;;;10.97;94.13;97855.41;4854541;29;20855;-83
2024/02/11 01:34:59;;;;;;;6.20;5.67;;;;;;;11.01;94.17;97861.31;4828841;29;20960;-81
2024/02/11 01:37:47;;;;;;;4.90;4.47;;;;;;;10.98;94.36;97862.44;4830530;29;20451;-81
2024/02/11 01:40:34;;;;;;;5.77;5.27;;;;;;;11.02;94.09;97862.81;4827050;29;20946;-82
2024/02/11 01:43:21;;;;;;;4.87;4.33;;;;;;;11.03;93.85;97869.81;4829358;29;20810;-82
2024/02/11 01:46:10;;;;;;;5.40;5.00;;;;;;;11.02;93.90;97868.31;4828630;29;20447;-80
2024/02/11 01:49:02;;;;;;;5.30;4.80;;;;;;;10.99;94.00;97869.44;4827789;29;20435;-81
2024/02/11 01:51:52;;;;;;;4.90;4.50;;;;;;;10.99;94.04;97874.94;4828761;29;20886;-82
2024/02/11 01:54:40;;;;;;;4.80;4.40;;;;;;;11.01;93.90;97869.63;4840774;29;20836;-82
2024/02/11 01:57:28;;;;;;;7.43;6.73;;;;;;;10.99;93.86;97872.19;4827117;29;20769;-80
2024/02/11 02:00:16;;;;;;;5.00;4.60;;;;;;;10.97;94.34;97874.00;4824353;29;21181;-80
2024/02/11 02:03:07;;;;;;;5.13;4.57;;;;;;;10.95;94.21;97869.06;4823593;29;20800;-79
2024/02/11 02:05:55;;;;;;;5.10;4.70;;;;;;;10.94;93.87;97872.34;4824161;29;20436;-78
2024/02/11 02:08:42;;;;;;;5.60;5.03;;;;;;;10.95;94.14;97869.06;4823576;29;20818;-79
2024/02/11 02:11:30;;;;;;;4.70;4.40;;;;;;;10.95;93.97;97862.78;4824760;29;20801;-80
2024/02/11 02:14:17;;;;;;;5.23;4.73;;;;;;;10.95;94.01;97863.53;4825635;29;20832;-80
2024/02/11 02:17:04;;;;;;;6.00;4.97;;;;;;;10.97;93.76;97866.47;4841374;29;20467;-80
2024/02/11 02:19:53;;;;;;;5.83;4.73;;;;;;;10.96;93.80;97870.53;4843075;29;20931;-81
2024/02/11 02:22:42;;;;;;;5.17;4.67;;;;;;;10.97;93.77;97872.00;4845248;29;20458;-81
2024/02/11 02:25:30;;;;;;;5.63;5.23;;;;;;;10.97;93.59;97866.47;4843916;29;20807;-81
2024/02/11 02:28:19;;;;;;;5.80;5.30;;;;;;;10.95;93.28;97858.00;4848040;29;20876;-81
2024/02/11 02:31:07;;;;;;;5.13;4.63;;;;;;;10.93;93.40;97863.31;4841716;29;20875;-83
2024/02/11 02:33:54;;;;;;;6.13;5.63;;;;;;;10.94;93.26;97862.06;4826601;29;20912;-80
2024/02/11 02:36:41;;;;;;;5.43;5.00;;;;;;;10.90;93.48;97867.16;4826895;29;20891;-81
2024/02/11 02:39:29;;;;;;;7.07;5.83;;;;;;;10.88;93.44;97862.75;4826255;29;20839;-81
2024/02/11 02:42:16;;;;;;;5.37;4.97;;;;;;;10.90;93.41;97864.41;4824909;29;20812;-82
2024/02/11 02:45:05;;;;;;;6.30;5.07;;;;;;;10.89;93.37;97857.41;4826972;29;20923;-81
2024/02/11 02:47:53;;;;;;;6.10;5.50;;;;;;;10.88;93.28;97859.97;4837336;29;20812;-81
2024/02/11 02:50:43;;;;;;;5.90;5.30;;;;;;;10.88;93.32;97862.75;4843162;29;20839;-81
2024/02/11 02:53:30;;;;;;;9.53;5.50;;;;;;;10.87;93.39;97858.50;4844198;29;20978;-81
2024/02/11 02:56:19;;;;;;;5.17;4.73;;;;;;;10.88;93.25;97857.22;4843832;29;20471;-83
2024/02/11 02:59:08;;;;;;;6.93;6.27;;;;;;;10.89;93.00;97865.69;4842089;29;21007;-81
2024/02/11 03:01:58;;;;;;;5.83;5.33;;;;;;;10.92;92.94;97858.34;4842690;29;20784;-80
2024/02/11 03:04:45;;;;;;;5.90;5.50;;;;;;;10.96;92.99;97865.00;4842482;29;20811;-80
2024/02/11 03:07:33;;;;;;;6.40;5.90;;;;;;;10.97;92.76;97866.47;4838332;29;20444;-80
2024/02/11 03:10:21;;;;;;;9.67;5.83;;;;;;;10.97;92.68;97872.00;4841887;29;21106;-81
2024/02/11 03:13:09;;;;;;;6.30;5.70;;;;;;;11.02;92.53;97862.81;4843447;29;20802;-83
2024/02/11 03:15:58;;;;;;;6.70;6.03;;;;;;;11.03;92.50;97864.28;4835691;29;20840;-81
2024/02/11 03:18:45;;;;;;;6.40;5.80;;;;;;;11.03;92.72;97869.81;4842593;29;20945;-82
2024/02/11 03:21:33;;;;;;;5.90;5.47;;;;;;;11.09;92.36;97867.63;4843023;29;20455;-80
2024/02/11 03:24:21;;;;;;;5.97;5.57;;;;;;;11.06;92.24;97867.97;4842484;29;20842;-81
2024/02/11 03:27:08;;;;;;;5.60;5.10;;;;;;;11.06;92.36;97862.44;4838202;29;20878;-81
2024/02/11 03:29:56;;;;;;;6.30;5.70;;;;;;;11.06;92.40;97873.50;4841685;29;20831;-80
2024/02/11 03:32:45;;;;;;;6.70;5.53;;;;;;;11.09;92.08;97878.69;4837991;29;20668;-82
2024/02/11 03:35:32;;;;;;;5.93;5.43;;;;;;;11.06;92.41;97868.72;4841788;29;20838;-82
2024/02/11 03:38:19;;;;;;;5.80;5.30;;;;;;;11.02;92.44;97868.31;4843176;29;20904;-81
2024/02/11 03:41:07;;;;;;;6.23;5.67;;;;;;;10.96;92.48;97865.00;4865760;24;20843;-84
2024/02/11 03:43:54;;;;;;;5.73;5.20;;;;;;;11.05;92.41;97878.31;4878783;29;20441;-84
2024/02/11 03:46:43;;;;;;;6.20;5.60;;;;;;;11.14;91.90;97883.31;4879624;29;20845;-86
2024/02/11 03:49:30;;;;;;;5.80;5.27;;;;;;;11.13;91.97;97884.59;4879861;29;20452;-84
2024/02/11 03:52:17;;;;;;;8.87;5.33;;;;;;;11.12;91.95;97885.88;4869462;29;20458;-84
2024/02/11 03:55:10;;;;;;;6.07;5.47;;;;;;;11.17;91.91;97890.53;4861614;29;20941;-83
2024/02/11 03:57:58;;;;;;;6.83;6.13;;;;;;;11.12;91.72;97887.91;4860702;29;20920;-84
2024/02/11 04:00:45;;;;;;;7.33;6.67;;;;;;;11.08;91.92;97901.34;4860135;29;20795;-84
2024/02/11 04:03:33;;;;;;;6.80;6.10;;;;;;;11.09;92.15;97895.28;4852687;29;20798;-85
2024/02/11 04:06:21;;;;;;;6.63;6.13;;;;;;;11.09;92.08;97892.50;4846224;29;20958;-82
2024/02/11 04:09:09;;;;;;;7.20;6.27;;;;;;;11.11;92.06;97898.22;4861115;29;20813;-83
2024/02/11 04:11:58;;;;;;;6.47;5.87;;;;;;;11.11;92.02;97900.97;4861139;29;20857;-83
2024/02/11 04:14:45;;;;;;;6.60;5.97;;;;;;;11.09;92.09;97903.56;4855267;29;20829;-84
2024/02/11 04:17:36;;;;;;;6.97;6.20;;;;;;;11.11;92.13;97903.75;4859945;29;20860;-84
2024/02/11 04:20:28;;;;;;;6.70;6.10;;;;;;;11.06;92.00;97904.66;4845004;29;20442;-83
2024/02/11 04:23:15;;;;;;;7.43;6.67;;;;;;;11.05;92.19;97900.41;4854490;29;20830;-82
2024/02/11 04:26:07;;;;;;;7.77;7.07;;;;;;;11.08;92.12;97910.38;4861193;29;21117;-82
2024/02/11 04:28:54;;;;;;;7.63;6.87;;;;;;;11.13;91.85;97915.00;4858513;29;20920;-86
2024/02/11 04:31:41;;;;;;;6.90;6.40;;;;;;;11.15;91.80;97909.69;4860527;29;21064;-83
2024/02/11 04:34:30;;;;;;;7.50;6.87;;;;;;;11.15;91.72;97915.22;4861988;29;20812;-81
2024/02/11 04:37:18;;;;;;;6.93;6.33;;;;;;;11.16;91.82;97916.69;4859982;29;20835;-82
2024/02/11 04:40:10;;;;;;;6.90;6.30;;;;;;;11.16;91.58;97911.16;4856265;29;20450;-82
2024/02/11 04:42:57;;;;;;;7.00;6.40;;;;;;;11.22;91.11;97919.28;4844385;29;20826;-82
2024/02/11 04:45:44;;;;;;;7.20;6.67;;;;;;;11.26;90.93;97914.88;4859482;29;20841;-83
2024/02/11 04:48:32;;;;;;;6.43;5.90;;;;;;;11.25;91.10;97910.66;4856933;29;21140;-83
2024/02/11 04:51:20;;;;;;;7.30;6.40;;;;;;;11.23;91.05;97909.72;4855532;29;20845;-84
2024/02/11 04:54:08;;;;;;;9.00;6.70;;;;;;;11.30;90.54;97918.03;4857884;29;20445;-85
2024/02/11 04:56:55;;;;;;;6.50;5.80;;;;;;;11.28;90.49;97928.91;4864032;29;20473;-85
2024/02/11 04:59:43;;;;;;;7.43;6.90;;;;;;;11.31;90.50;97933.34;4865198;29;20932;-85
2024/02/11 05:02:30;;;;;;;6.63;6.00;;;;;;;11.36;90.08;97929.69;4863743;29;20895;-85
2024/02/11 05:05:18;;;;;;;7.97;6.77;;;;;;;11.36;90.03;97924.16;4855631;29;20739;-84
2024/02/11 05:08:07;;;;;;;6.37;5.87;;;;;;;11.41;89.85;97931.53;4864988;29;20923;-86
2024/02/11 05:10:56;;;;;;;6.37;5.90;;;;;;;11.36;89.81;97940.75;4863440;29;20477;-84
2024/02/11 05:13:44;;;;;;;8.07;6.90;;;;;;;11.36;89.65;97937.97;4864730;29;21138;-84
2024/02/11 05:16:34;;;;;;;7.17;6.30;;;;;;;11.37;89.37;97947.75;4865188;29;20450;-85
2024/02/11 05:19:21;;;;;;;7.00;6.40;;;;;;;11.42;89.51;97946.84;4856156;29;20810;-85
2024/02/11 05:22:09;;;;;;;7.60;7.00;;;;;;;11.30;89.71;97953.97;4849852;29;20468;-85
2024/02/11 05:24:57;;;;;;;7.00;6.30;;;;;;;11.21;90.25;97951.72;4863044;29;20983;-84
2024/02/11 05:27:48;;;;;;;6.80;6.20;;;;;;;11.24;90.04;97970.00;4864806;29;20814;-85
2024/02/11 05:30:35;;;;;;;6.90;6.20;;;;;;;11.20;90.16;97971.63;4862069;29;20858;-84
2024/02/11 05:33:22;;;;;;;6.80;6.30;;;;;;;11.26;89.93;97978.47;4864472;29;20942;-83
2024/02/11 05:36:09;;;;;;;6.40;5.80;;;;;;;11.28;89.78;97977.91;4864169;29;20843;-84
2024/02/11 05:38:57;;;;;;;6.17;5.57;;;;;;;11.28;89.54;97989.72;4856846;29;20887;-84
2024/02/11 05:41:45;;;;;;;9.53;5.43;;;;;;;11.31;89.34;97991.41;4864580;29;20896;-84
2024/02/11 05:44:33;;;;;;;5.10;4.70;;;;;;;11.46;88.49;97991.47;4864732;29;20442;-84
2024/02/11 05:47:20;;;;;;;5.33;4.90;;;;;;;11.37;89.12;98008.56;4864450;29;20434;-83
2024/02/11 05:50:08;;;;;;;3.30;3.00;;;;;;;11.29;89.33;98029.91;4862917;29;20442;-84
2024/02/11 05:52:55;;;;;;;1.53;1.30;;;;;;;11.16;87.04;98032.78;4862901;29;20881;-85
2024/02/11 05:55:42;;;;;;;1.30;1.20;;;;;;;11.08;86.61;98037.50;4844520;29;20867;-84
2024/02/11 05:58:31;;;;;;;1.70;1.60;;;;;;;10.88;87.21;98046.56;4848298;29;20623;-85
2024/02/11 06:01:19;;;;;;;4.23;1.97;;;;;;;10.68;87.30;98043.81;4861412;29;20793;-84
2024/02/11 06:04:06;;;;;;;1.83;1.67;;;;;;;10.63;87.75;98064.03;4860176;29;20801;-85
2024/02/11 06:06:53;;;;;;;3.40;2.07;;;;;;;10.62;86.04;98067.31;4860411;29;20849;-84
2024/02/11 06:09:40;;;;;;;3.83;1.57;;;;;;;10.38;86.95;98073.19;4855490;29;20981;-84
2024/02/11 06:12:27;;;;;;;3.40;1.70;;;;;;;10.28;87.24;98072.88;4862578;29;20527;-84
2024/02/11 06:15:20;;;;;;;3.57;2.10;;;;;;;10.22;86.97;98079.81;4854620;29;20912;-85
2024/02/11 06:18:09;;;;;;;3.93;1.90;;;;;;;10.05;87.42;98084.94;4848485;29;20805;-85
2024/02/11 06:20:56;;;;;;;3.63;1.80;;;;;;;10.01;86.95;98087.97;4842831;29;20839;-84
2024/02/11 06:23:44;;;;;;;6.73;2.40;;;;;;;10.00;87.42;98107.84;4861631;29;20872;-86
2024/02/11 06:26:31;;;;;;;4.33;2.47;;;;;;;10.06;86.97;98100.22;4856159;29;20813;-85
2024/02/11 06:29:18;;;;;;;6.47;2.13;;;;;;;10.02;85.54;98097.00;4863647;29;20958;-85
2024/02/11 06:32:05;;;;;;;9.20;2.53;;;;;;;10.12;84.63;98109.13;4858797;29;20469;-84
2024/02/11 06:34:54;;;;;;;11.60;2.90;;;;;;;10.06;84.39;98114.00;4861484;29;20938;-83
2024/02/11 06:37:42;;;;;;;6.20;2.67;;;;;;;10.01;84.82;98120.38;4860241;29;20857;-84
2024/02/11 06:40:30;;;;;;;4.23;2.40;;;;;;;10.01;85.19;98125.88;4861931;29;21068;-85
2024/02/11 06:43:17;;;;;;;6.77;2.67;;;;;;;10.06;85.10;98127.81;4861732;29;20852;-84
2024/02/11 06:46:05;;;;;;;6.33;3.93;;;;;;;10.14;81.82;98128.63;4863319;29;20454;-85
2024/02/11 06:48:52;;;;;;;4.67;3.03;;;;;;;9.99;83.34;98131.19;4862272;29;20813;-83
2024/02/11 06:51:41;;;;;;;9.07;3.60;;;;;;;10.01;83.17;98136.91;4848243;29;21053;-83
2024/02/11 06:54:28;;;;;;;8.37;3.60;;;;;;;10.02;82.77;98132.88;4862138;29;20856;-85
2024/02/11 06:57:15;;;;;;;6.83;4.03;;;;;;;10.04;80.79;98130.34;4861230;29;20815;-84
2024/02/11 07:00:02;;;;;;;9.37;3.80;;;;;;;10.05;80.93;98142.88;4861927;29;20972;-85
2024/02/11 07:02:54;;;;;;;8.40;3.50;;;;;;;10.02;81.45;98138.41;4847636;29;20832;-83
2024/02/11 07:05:41;;;;;;;6.57;3.17;;;;;;;10.00;82.36;98157.50;4862808;29;20864;-84
2024/02/11 07:08:30;;;;;;;8.10;3.40;;;;;;;9.98;83.79;98160.03;4860514;29;20478;-84
2024/02/11 07:11:17;;;;;;;7.10;3.37;;;;;;;10.05;83.51;98159.44;4856251;29;20874;-85
2024/02/11 07:14:04;;;;;;;10.40;4.00;;;;;;;10.07;83.69;98162.41;4861390;29;20958;-83
2024/02/11 07:16:51;;;;;;;9.53;3.80;;;;;;;9.97;85.32;98164.06;4862479;29;21340;-84
2024/02/11 07:19:38;;;;;;;5.93;3.50;;;;;;;9.90;86.22;98170.25;4860376;29;21108;-84
2024/02/11 07:22:26;;;;;;;6.77;3.10;;;;;;;9.90;86.65;98175.78;4860657;29;20951;-85
2024/02/11 07:25:16;;;;;;;7.27;4.10;;;;;;;9.88;87.35;98178.28;4862831;29;20787;-84
2024/02/11 07:28:05;;;;;;;6.17;3.27;;;;;;;9.86;87.56;98192.63;4861181;29;20863;-83
2024/02/11 07:30:51;;;;;;;8.50;4.00;;;;;;;9.86;86.95;98200.16;4861871;29;20795;-83
2024/02/11 07:33:38;;;;;;;6.33;3.93;;;;;;;9.83;87.53;98206.75;4862019;29;20437;-83
2024/02/11 07:36:26;;;;;;;7.40;3.87;;;;;;;9.83;87.60;98218.50;4861176;29;20993;-84
2024/02/11 07:39:15;;;;;;;6.47;3.43;;;;;;;9.86;87.29;98219.47;4860601;29;20442;-84
2024/02/11 07:42:06;;;;;;;8.10;3.70;;;;;;;9.89;87.01;98221.19;4859988;29;20842;-83
2024/02/11 07:44:53;;;;;;;8.20;3.50;;;;;;;9.85;88.05;98234.53;4860371;29;20843;-82
2024/02/11 07:47:40;;;;;;;8.23;3.40;;;;;;;9.87;88.02;98235.50;4853167;29;20901;-84
2024/02/11 07:50:27;;;;;;;6.27;3.60;;;;;;;9.87;87.66;98237.50;4853115;29;20813;-84
2024/02/11 07:53:15;;;;;;;7.23;3.80;;;;;;;9.87;88.07;98243.03;4846620;29;20950;-84
2024/02/11 07:56:02;;;;;;;5.63;4.23;;;;;;;9.91;87.86;98248.97;4859522;29;20445;-83
2024/02/11 07:58:50;;;;;;;5.80;3.80;;;;;;;9.97;87.18;98255.88;4855669;29;20585;-83
2024/02/11 08:01:37;;;;;;;5.33;3.50;;;;;;;9.98;87.43;98259.38;4859162;29;20462;-83
2024/02/11 08:04:24;;;;;;;7.00;4.40;;;;;;;9.96;87.41;98267.44;4856444;29;20813;-84
2024/02/11 08:07:11;;;;;;;7.53;3.80;;;;;;;10.00;87.48;98273.41;4857229;29;21178;-83
2024/02/11 08:09:58;;;;;;;9.40;3.90;;;;;;;9.97;87.35;98274.44;4860369;29;20860;-84
2024/02/11 08:12:45;;;;;;;8.70;4.30;;;;;;;10.02;87.31;98274.38;4861655;29;20446;-83
2024/02/11 08:15:34;;;;;;;5.87;4.00;;;;;;;9.97;87.45;98277.19;4864205;29;20460;-84
2024/02/11 08:18:21;;;;;;;6.80;5.77;;;;;;;9.94;88.10;98272.75;4862430;29;20845;-82
2024/02/11 08:21:09;;;;;;;6.37;4.67;;;;;;;9.93;88.34;98280.25;4861783;29;20823;-82
2024/02/11 08:23:56;;;;;;;8.30;5.53;;;;;;;9.94;88.62;98281.03;4853984;29;20815;-83
2024/02/11 08:26:43;;;;;;;8.33;6.03;;;;;;;9.96;88.51;98281.22;4860618;29;20501;-83
2024/02/11 08:29:31;;;;;;;10.43;5.60;;;;;;;9.98;88.78;98281.44;4846419;29;20541;-82
2024/02/11 08:32:19;;;;;;;7.90;6.10;;;;;;;9.97;88.41;98291.00;4861326;29;20824;-82
2024/02/11 08:35:08;;;;;;;12.77;7.43;;;;;;;10.00;89.06;98296.19;4859206;29;20449;-82
2024/02/11 08:37:56;;;;;;;10.63;7.80;;;;;;;10.07;89.19;98289.34;4862124;29;20818;-81
2024/02/11 08:40:44;;;;;;;14.07;9.30;;;;;;;10.11;89.26;98296.03;4863654;29;20452;-83
2024/02/11 08:43:31;;;;;;;10.13;6.33;;;;;;;10.16;89.46;98303.47;4848516;29;20824;-83
2024/02/11 08:46:18;;;;;;;11.27;7.40;;;;;;;10.20;89.40;98303.16;4864662;29;20864;-82
2024/02/11 08:49:06;;;;;;;10.00;7.53;;;;;;;10.20;89.35;98308.69;4861741;29;21016;-82
2024/02/11 08:51:53;;;;;;;13.27;8.13;;;;;;;10.18;89.52;98322.28;4857677;29;20819;-82
2024/02/11 08:54:40;;;;;;;12.93;8.33;;;;;;;10.13;89.56;98321.09;4863465;29;20815;-83
2024/02/11 08:57:27;;;;;;;12.87;9.50;;;;;;;10.23;88.85;98324.19;4864279;29;20810;-83
2024/02/11 09:00:16;;;;;;;9.63;7.80;;;;;;;10.08;89.01;98323.94;4863904;29;20450;-83
2024/02/11 09:03:03;;;;;;;16.10;9.27;;;;;;;10.05;89.76;98336.03;4861776;29;20862;-83
2024/02/11 09:05:52;;;;;;;16.60;11.33;;;;;;;10.07;89.82;98339.00;4862447;29;20807;-84
2024/02/11 09:08:39;;;;;;;12.40;7.30;;;;;;;10.10;89.76;98337.97;4864805;29;20445;-83
2024/02/11 09:11:26;;;;;;;5.57;4.53;;;;;;;10.12;89.99;98335.44;4866308;29;20985;-81
2024/02/11 09:14:12;;;;;;;6.53;4.30;;;;;;;10.16;90.37;98336.59;4878853;29;20442;-81
2024/02/11 09:17:00;;;;;;;8.60;4.27;;;;;;;10.28;89.73;98337.16;4869944;29;20924;-80
2024/02/11 09:19:47;;;;;;;8.80;4.60;;;;;;;10.30;89.66;98334.59;4859992;29;20820;-81
2024/02/11 09:22:36;;;;;;;10.17;4.40;;;;;;;10.36;89.27;98326.94;4862046;29;20885;-81
2024/02/11 09:25:24;;;;;;;6.83;5.87;;;;;;;10.37;89.49;98331.22;4861099;29;20468;-81
2024/02/11 09:28:11;;;;;;;8.17;4.30;;;;;;;10.49;89.05;98335.25;4863429;29;20441;-84
2024/02/11 09:30:58;;;;;;;9.50;4.90;;;;;;;10.44;88.65;98338.84;4861706;29;20784;-82
2024/02/11 09:33:45;;;;;;;8.87;5.90;;;;;;;10.33;88.66;98339.06;4863047;29;20445;-82
2024/02/11 09:36:33;;;;;;;10.60;6.63;;;;;;;10.35;88.62;98342.78;4862069;29;20616;-81
2024/02/11 09:39:21;;;;;;;6.70;4.53;;;;;;;10.43;88.08;98342.88;4862435;29;20807;-81
2024/02/11 09:42:15;;;;;;;8.03;4.40;;;;;;;10.40;88.12;98343.94;4880340;24;20893;-82
2024/02/11 09:45:05;;;;;;;9.07;6.93;;;;;;;10.41;88.87;98350.97;4817087;29;20465;-80
2024/02/11 09:47:53;;;;;;;9.47;5.80;;;;;;;10.50;88.64;98347.78;4845936;29;20462;-82
2024/02/11 09:50:42;;;;;;;7.90;5.30;;;;;;;10.54;88.44;98353.72;4830594;29;20786;-82
2024/02/11 09:53:34;;;;;;;8.50;5.73;;;;;;;10.60;88.35;98351.59;4842494;29;20855;-77
2024/02/11 09:56:22;;;;;;;6.07;4.80;;;;;;;10.65;88.32;98347.97;4838231;29;20788;-79
2024/02/11 09:59:10;;;;;;;7.37;4.60;;;;;;;10.78;87.62;98357.00;4831082;29;20895;-81
2024/02/11 10:01:59;;;;;;;6.77;5.33;;;;;;;10.88;87.48;98365.63;4831755;29;20807;-84
2024/02/11 10:04:47;;;;;;;6.60;4.70;;;;;;;10.92;87.25;98364.03;4840878;29;20872;-83
2024/02/11 10:07:39;;;;;;;8.33;5.20;;;;;;;11.01;86.85;98353.25;4848287;29;20914;-82
2024/02/11 10:10:27;;;;;;;6.97;5.70;;;;;;;11.00;87.03;98357.31;4846082;29;20792;-83
2024/02/11 10:13:19;;;;;;;6.50;5.90;;;;;;;10.97;86.54;98358.38;4845425;29;21097;-83
2024/02/11 10:16:07;;;;;;;8.80;6.03;;;;;;;10.92;87.08;98362.00;4846158;29;20833;-81
2024/02/11 10:18:57;;;;;;;6.93;5.07;;;;;;;11.07;87.43;98356.66;4845118;29;20471;-81
2024/02/11 10:21:45;;;;;;;7.00;5.37;;;;;;;11.27;86.83;98358.75;4844661;29;21056;-82
2024/02/11 10:24:32;;;;;;;7.30;5.00;;;;;;;11.43;86.28;98360.41;4846082;29;20815;-82
2024/02/11 10:27:20;;;;;;;7.13;5.43;;;;;;;11.46;86.04;98359.31;4845324;29;20450;-82
2024/02/11 10:30:12;;;;;;;7.73;5.43;;;;;;;11.67;85.68;98362.88;4838229;29;20795;-83
2024/02/11 10:33:01;;;;;;;5.30;4.50;;;;;;;11.70;84.61;98361.81;4844589;29;20838;-83
2024/02/11 10:35:49;;;;;;;4.97;4.47;;;;;;;11.75;84.73;98366.47;4845538;29;20914;-83
2024/02/11 10:38:36;;;;;;;8.23;5.73;;;;;;;11.59;84.65;98367.59;4843964;29;20508;-84
2024/02/11 10:41:23;;;;;;;6.43;5.60;;;;;;;11.64;85.16;98363.97;4845143;29;20466;-83
2024/02/11 10:44:10;;;;;;;7.57;5.97;;;;;;;11.79;84.44;98357.84;4844198;29;20488;-82
2024/02/11 10:46:59;;;;;;;9.10;6.83;;;;;;;11.94;83.73;98363.50;4842747;29;20826;-82
2024/02/11 10:49:46;;;;;;;7.63;5.13;;;;;;;11.91;82.94;98364.59;4837231;29;20813;-85
2024/02/11 10:52:39;;;;;;;7.07;5.60;;;;;;;11.97;83.04;98367.97;4832011;29;20790;-82
2024/02/11 10:55:32;;;;;;;6.00;5.50;;;;;;;11.93;82.51;98362.78;4840025;29;20442;-83
2024/02/11 10:58:24;;;;;;;8.17;7.37;;;;;;;12.09;82.35;98380.25;4844375;29;20886;-83
2024/02/11 11:01:14;;;;;;;6.53;4.87;;;;;;;12.13;81.63;98370.34;4844600;29;20800;-84
2024/02/11 11:04:04;;;;;;;5.93;5.33;;;;;;;12.07;81.83;98369.72;4837752;29;20831;-83
2024/02/11 11:06:53;;;;;;;5.87;5.37;;;;;;;12.20;81.63;98364.13;4844182;29;20813;-83
2024/02/11 11:09:41;;;;;;;6.40;5.87;;;;;;;12.30;81.52;98362.34;4845445;29;20828;-83
2024/02/11 11:12:28;;;;;;;6.03;5.43;;;;;;;12.29;81.71;98371.91;4844711;29;20463;-81
2024/02/11 11:15:23;;;;;;;6.27;5.67;;;;;;;12.35;81.60;98364.22;4839378;29;20791;-82
2024/02/11 11:18:11;;;;;;;7.23;5.50;;;;;;;12.40;81.20;98363.34;4843301;29;20469;-84
2024/02/11 11:21:04;;;;;;;9.17;7.90;;;;;;;12.52;80.58;98370.06;4840209;29;20802;-82
2024/02/11 11:23:51;;;;;;;7.93;6.73;;;;;;;12.49;80.44;98370.41;4844924;29;20547;-82
2024/02/11 11:26:38;;;;;;;10.93;8.40;;;;;;;12.51;79.97;98376.91;4844840;29;20838;-81
2024/02/11 11:29:27;;;;;;;7.63;6.73;;;;;;;12.53;79.87;98374.31;4844726;29;20852;-82
2024/02/11 11:32:17;;;;;;;9.00;8.10;;;;;;;12.59;79.69;98366.63;4845508;29;20849;-82
2024/02/11 11:35:06;;;;;;;7.13;6.43;;;;;;;12.60;80.16;98373.66;4843673;29;20457;-82
2024/02/11 11:38:00;;;;;;;8.10;6.67;;;;;;;12.62;80.17;98368.28;4845141;29;20474;-83
2024/02/11 11:40:53;;;;;;;6.13;5.57;;;;;;;12.64;79.91;98368.47;4843875;29;20807;-83
2024/02/11 11:43:40;;;;;;;6.20;5.73;;;;;;;12.57;80.41;98380.25;4837072;29;20825;-83
2024/02/11 11:46:28;;;;;;;7.73;5.83;;;;;;;12.52;80.51;98377.63;4844001;29;20868;-82
2024/02/11 11:49:15;;;;;;;6.17;5.57;;;;;;;12.48;80.15;98366.16;4839672;29;20810;-82
2024/02/11 11:52:03;;;;;;;4.87;4.47;;;;;;;12.28;80.65;98364.91;4845292;29;20450;-82
2024/02/11 11:54:51;;;;;;;7.17;5.70;;;;;;;12.32;80.30;98365.31;4844064;29;20804;-82
2024/02/11 11:57:39;;;;;;;7.30;5.17;;;;;;;12.34;79.98;98362.75;4843979;29;20519;-80
2024/02/11 12:00:26;;;;;;;7.13;5.50;;;;;;;12.23;80.23;98365.81;4839866;29;20810;-83
2024/02/11 12:03:13;;;;;;;6.30;5.77;;;;;;;12.20;79.96;98366.88;4843246;29;20568;-82
2024/02/11 12:06:00;;;;;;;5.77;5.30;;;;;;;12.28;80.39;98370.44;4840362;29;20898;-83
2024/02/11 12:08:47;;;;;;;6.60;5.00;;;;;;;12.36;80.60;98376.78;4836582;29;20785;-83
2024/02/11 12:11:37;;;;;;;6.33;5.70;;;;;;;12.45;80.00;98373.53;4843163;29;20455;-82
2024/02/11 12:14:25;;;;;;;6.07;5.50;;;;;;;12.57;80.44;98380.25;4845109;29;20465;-83
2024/02/11 12:17:12;;;;;;;6.00;5.50;;;;;;;12.86;79.71;98362.31;4844837;29;20454;-84
2024/02/11 12:20:00;;;;;;;5.83;5.23;;;;;;;12.91;79.05;98369.75;4843105;29;20823;-83
2024/02/11 12:22:47;;;;;;;7.20;6.50;;;;;;;12.89;78.96;98361.25;4843730;29;20515;-83
2024/02/11 12:25:35;;;;;;;7.30;6.53;;;;;;;12.83;78.97;98371.75;4843280;29;20632;-83
2024/02/11 12:28:25;;;;;;;6.77;5.17;;;;;;;13.12;77.69;98375.97;4842840;29;20829;-83
2024/02/11 12:31:13;;;;;;;8.10;7.00;;;;;;;13.16;77.56;98373.59;4843246;29;20831;-83
2024/02/11 12:34:04;;;;;;;6.23;5.50;;;;;;;13.15;77.28;98377.66;4834777;29;20459;-82
2024/02/11 12:36:59;;;;;;;6.73;5.30;;;;;;;13.19;77.14;98375.28;4830282;29;20443;-83
2024/02/11 12:39:48;;;;;;;5.80;5.30;;;;;;;13.21;77.14;98374.72;4822822;29;20872;-82
2024/02/11 12:42:36;;;;;;;6.43;4.80;;;;;;;13.13;77.34;98380.25;4841481;29;20682;-82
2024/02/11 12:45:25;;;;;;;5.53;4.83;;;;;;;13.06;76.70;98369.13;4842739;29;20454;-83
2024/02/11 12:48:12;;;;;;;4.40;4.10;;;;;;;13.06;76.29;98380.94;4843123;29;20594;-85
2024/02/11 12:51:00;;;;;;;5.10;4.67;;;;;;;12.90;76.87;98379.38;4838969;29;20955;-82
2024/02/11 12:53:48;;;;;;;5.40;4.90;;;;;;;12.84;77.19;98376.00;4840951;29;20904;-82
2024/02/11 12:56:35;;;;;;;8.60;4.87;;;;;;;12.64;78.13;98379.56;4842221;29;20867;-80
2024/02/11 12:59:23;;;;;;;5.10;4.70;;;;;;;12.65;77.95;98374.78;4848057;29;20916;-81
2024/02/11 13:02:12;;;;;;;5.70;4.60;;;;;;;12.71;77.92;98378.88;4836505;29;20810;-83
2024/02/11 13:04:59;;;;;;;6.00;5.43;;;;;;;12.68;77.91;98377.22;4848027;29;21061;-80
2024/02/11 13:07:46;;;;;;;6.17;5.30;;;;;;;12.71;78.41;98373.34;4841300;29;20822;-84
2024/02/11 13:10:33;;;;;;;6.30;5.80;;;;;;;12.78;77.60;98378.19;4838760;29;20475;-79
2024/02/11 13:28:36;;;;;;;3.83;2.90;;;;;;;12.93;74.50;98383.81;5308659;24;21116;-80